Huvudsida
METAR-TAF:

METAR-TAF

Flygplatser :

Bukarest, Rumänien

latitud: 44-33N, longitud: 026-06E, höjd: 95 m

Aktuellt väderrapport

Denna rapport gjordes för 13 minuter sedan, klockan 03:30 UTC
Vind 3 kt från väst/sydväst
Temperatur 2°C
Fuktighet 75%
Tryck 1003 hPa
Sikt 10 km eller mer
Inga moln under 1 500 m eller inga cumulonimbus

METAR: LROP 260330Z 24003KT CAVOK 02/M02 Q1003 NOSIG

Tid: 05:43 (03:43 UTC)

Väderprognos

Denna rapport gjordes för 4 timmar och 43 minuter sedan, klockan 23:00 UTC
Prognos gäller från 26 kl. 00 UTC till 26 kl. 24 UTC
Vind 4 kt varierande vindriktning
Sikt 10 km eller mer
Inga moln under 1 500 m eller inga cumulonimbus
Blir
från 26 kl. 06 UTC till 26 kl. 08 UTC
Vind 10 kt från väst/sydväst

TAF: LROP 252300Z 2600/2624 VRB04KT CAVOK BECMG 2606/2608 25010KT

Aktuella väderrapporter och prognoser från 4000 flygplatser (METAR- och TAF-rapporter).

De tillgängliga stationerna syns som gula och röda prickar på kartan.

För musen över prickarna för att se namnen på stationerna.

Klicka sedan för att få väderrapporter och prognoser.

För att ändra kartan: Klicka på de gröna knapparna med ett svart kors på för att zooma in; den gröna knappen med ett streck på för att zooma ut; eller på de gröna pilarna för angränsande kartor.


METAR-TAF: